createdAt,value
2023-07-21T00:01:11.859Z,14.08
2023-07-21T00:03:45.382Z,14.05
2023-07-21T00:06:13.402Z,14.03
2023-07-21T00:08:40.123Z,14.03
2023-07-21T00:11:06.786Z,14.00
2023-07-21T00:13:36.518Z,13.96
2023-07-21T00:16:08.509Z,13.92
2023-07-21T00:18:36.250Z,13.70
2023-07-21T00:21:06.570Z,13.57
2023-07-21T00:23:33.816Z,13.48
2023-07-21T00:26:02.344Z,13.50
2023-07-21T00:28:29.186Z,13.48
2023-07-21T00:30:55.993Z,13.46
2023-07-21T00:33:23.512Z,13.33
2023-07-21T00:35:50.215Z,13.28
2023-07-21T00:38:16.810Z,13.26
2023-07-21T00:40:43.642Z,13.23
2023-07-21T00:43:10.426Z,13.23
2023-07-21T00:45:41.145Z,13.14
2023-07-21T00:48:11.525Z,13.10
2023-07-21T00:50:43.852Z,13.03
2023-07-21T00:53:12.575Z,13.03
2023-07-21T00:55:40.135Z,12.91
2023-07-21T00:58:08.788Z,12.88
2023-07-21T01:00:35.596Z,12.76
2023-07-21T01:03:04.465Z,12.84
2023-07-21T01:05:35.041Z,12.77
2023-07-21T01:08:09.062Z,12.65
2023-07-21T01:10:39.114Z,12.65
2023-07-21T01:13:06.795Z,12.65
2023-07-21T01:15:37.166Z,12.61
2023-07-21T01:18:06.181Z,12.62
2023-07-21T01:20:33.666Z,12.68
2023-07-21T01:23:35.350Z,12.61
2023-07-21T01:26:03.064Z,12.70
2023-07-21T01:28:31.065Z,12.67
2023-07-21T01:30:58.511Z,12.69
2023-07-21T01:33:27.630Z,13.00
2023-07-21T01:35:55.439Z,13.24
2023-07-21T01:38:23.748Z,13.20
2023-07-21T01:40:51.536Z,13.24
2023-07-21T01:43:18.875Z,13.33
2023-07-21T01:45:45.636Z,13.31
2023-07-21T01:48:12.271Z,13.19
2023-07-21T01:50:42.412Z,13.12
2023-07-21T01:53:16.844Z,13.07
2023-07-21T01:55:59.858Z,13.07
2023-07-21T01:58:28.706Z,13.07
2023-07-21T02:00:56.718Z,13.11
2023-07-21T02:03:24.674Z,13.14
2023-07-21T02:05:51.659Z,13.20
2023-07-21T02:08:19.353Z,13.23
2023-07-21T02:10:46.286Z,13.21
2023-07-21T02:13:14.818Z,13.14
2023-07-21T02:15:41.678Z,13.14
2023-07-21T02:18:08.445Z,13.17
2023-07-21T02:20:35.012Z,13.05
2023-07-21T02:23:01.760Z,13.03
2023-07-21T02:25:28.402Z,12.96
2023-07-21T02:27:55.016Z,12.96
2023-07-21T02:30:21.861Z,12.97
2023-07-21T02:32:48.512Z,12.89
2023-07-21T02:35:15.341Z,12.79
2023-07-21T02:37:41.955Z,12.69
2023-07-21T02:40:09.591Z,12.49
2023-07-21T02:42:39.142Z,12.49
2023-07-21T02:45:06.479Z,12.32
2023-07-21T02:47:33.185Z,12.31
2023-07-21T02:49:59.998Z,12.33
2023-07-21T02:52:28.618Z,12.35
2023-07-21T02:54:55.250Z,12.33
2023-07-21T02:57:22.333Z,12.31
2023-07-21T02:59:51.206Z,12.29
2023-07-21T03:02:19.356Z,12.31
2023-07-21T03:04:46.958Z,12.40
2023-07-21T03:07:13.860Z,12.41
2023-07-21T03:09:41.169Z,12.42
2023-07-21T03:12:08.643Z,12.41
2023-07-21T03:14:35.478Z,12.42
2023-07-21T03:17:02.311Z,12.38
2023-07-21T03:19:32.338Z,12.32
2023-07-21T03:21:59.379Z,12.36
2023-07-21T03:24:26.332Z,12.44
2023-07-21T03:26:53.235Z,12.47
2023-07-21T03:29:19.939Z,12.51
2023-07-21T03:31:47.104Z,12.59
2023-07-21T03:34:14.798Z,12.65
2023-07-21T03:36:41.675Z,12.72
2023-07-21T03:39:08.488Z,12.80
2023-07-21T03:41:35.326Z,12.82
2023-07-21T03:44:02.005Z,12.86
2023-07-21T03:46:29.336Z,12.92
2023-07-21T03:48:56.215Z,12.89
2023-07-21T03:51:22.820Z,13.01
2023-07-21T03:53:49.611Z,12.97
2023-07-21T03:56:16.351Z,13.00
2023-07-21T03:58:43.992Z,12.95
2023-07-21T04:01:10.775Z,12.97
2023-07-21T04:03:37.714Z,13.05
2023-07-21T04:06:21.067Z,13.11
2023-07-21T04:08:47.767Z,13.16
2023-07-21T04:11:14.356Z,13.24
2023-07-21T04:13:41.025Z,13.30
2023-07-21T04:16:07.917Z,13.41
2023-07-21T04:18:34.652Z,13.51
2023-07-21T04:21:01.430Z,13.63
2023-07-21T04:23:28.084Z,13.68
2023-07-21T04:25:54.713Z,13.72
2023-07-21T04:28:22.185Z,13.81
2023-07-21T04:30:55.120Z,13.93
2023-07-21T04:33:21.872Z,14.02
2023-07-21T04:35:49.319Z,14.08
2023-07-21T04:38:16.033Z,14.20
2023-07-21T04:40:45.654Z,14.32
2023-07-21T04:43:13.507Z,14.45
2023-07-21T04:45:43.671Z,14.53
2023-07-21T04:48:10.558Z,14.59
2023-07-21T04:50:37.388Z,14.63
2023-07-21T04:53:04.234Z,14.68
2023-07-21T04:55:30.995Z,14.65
2023-07-21T04:57:57.769Z,14.38
2023-07-21T05:00:25.133Z,14.17
2023-07-21T05:02:51.804Z,13.99
2023-07-21T05:05:18.984Z,13.83
2023-07-21T05:07:45.678Z,13.62
2023-07-21T05:10:12.440Z,13.62
2023-07-21T05:12:39.095Z,13.68
2023-07-21T05:15:06.397Z,13.74
2023-07-21T05:17:33.423Z,13.80
2023-07-21T05:20:00.261Z,13.77
2023-07-21T05:22:27.265Z,13.64
2023-07-21T05:24:54.404Z,13.73
2023-07-21T05:27:22.667Z,13.85
2023-07-21T05:29:49.480Z,13.86
2023-07-21T05:32:16.617Z,13.94
2023-07-21T05:34:43.581Z,13.94
2023-07-21T05:37:12.744Z,13.95
2023-07-21T05:39:40.803Z,13.94
2023-07-21T05:42:08.227Z,13.99
2023-07-21T05:44:35.114Z,13.97
2023-07-21T05:47:02.434Z,14.03
2023-07-21T05:49:29.305Z,14.09
2023-07-21T05:51:56.052Z,14.16
2023-07-21T05:54:22.704Z,14.20
2023-07-21T05:56:49.459Z,14.24
2023-07-21T05:59:16.054Z,14.32
2023-07-21T06:01:43.286Z,14.32
2023-07-21T06:04:10.500Z,14.32
2023-07-21T06:06:37.341Z,14.33
2023-07-21T06:09:05.513Z,14.18
2023-07-21T06:11:32.285Z,14.21
2023-07-21T06:13:58.912Z,14.16
2023-07-21T06:16:26.368Z,14.20
2023-07-21T06:18:53.901Z,14.21
2023-07-21T06:21:24.934Z,14.29
2023-07-21T06:23:54.785Z,14.24
2023-07-21T06:26:21.906Z,14.38
2023-07-21T06:28:48.716Z,14.52
2023-07-21T06:31:16.264Z,14.66
2023-07-21T06:33:43.164Z,14.78
2023-07-21T06:36:10.020Z,14.96
2023-07-21T06:38:36.880Z,15.05
2023-07-21T06:41:06.279Z,15.14
2023-07-21T06:43:33.880Z,15.26
2023-07-21T06:46:01.043Z,15.26
2023-07-21T06:48:27.805Z,15.28
2023-07-21T06:50:54.718Z,15.29
2023-07-21T06:53:21.366Z,15.39
2023-07-21T06:55:51.037Z,15.54
2023-07-21T06:58:17.691Z,15.51
2023-07-21T07:00:44.306Z,15.53
2023-07-21T07:03:10.927Z,15.49
2023-07-21T07:05:37.609Z,15.62
2023-07-21T07:08:04.320Z,15.67
2023-07-21T07:10:30.812Z,15.59
2023-07-21T07:12:57.417Z,15.64
2023-07-21T07:15:24.122Z,15.46
2023-07-21T07:17:50.929Z,15.48
2023-07-21T07:20:18.060Z,15.54
2023-07-21T07:22:45.172Z,15.71
2023-07-21T07:25:12.018Z,15.76
2023-07-21T07:27:38.749Z,15.84
2023-07-21T07:30:08.154Z,15.91
2023-07-21T07:32:34.828Z,16.06
2023-07-21T07:35:01.539Z,16.32
2023-07-21T07:37:28.923Z,16.41
2023-07-21T07:39:56.913Z,16.63
2023-07-21T07:42:25.036Z,16.54
2023-07-21T07:44:56.603Z,16.35
2023-07-21T07:47:24.213Z,16.37
2023-07-21T07:49:51.113Z,16.53
2023-07-21T07:52:19.945Z,16.60
2023-07-21T07:54:46.874Z,16.56
2023-07-21T07:57:13.588Z,16.56
2023-07-21T07:59:40.625Z,16.62
2023-07-21T08:02:07.582Z,16.75
2023-07-21T08:04:34.608Z,16.88
2023-07-21T08:07:01.587Z,17.07
2023-07-21T08:09:28.306Z,17.19
2023-07-21T08:11:55.833Z,17.34
2023-07-21T08:14:23.922Z,17.56
2023-07-21T08:16:50.627Z,17.68
2023-07-21T08:19:17.289Z,17.59
2023-07-21T08:21:44.137Z,17.50
2023-07-21T08:24:10.886Z,17.57
2023-07-21T08:26:37.653Z,17.56
2023-07-21T08:29:08.490Z,17.31
2023-07-21T08:31:35.250Z,17.25
2023-07-21T08:34:02.074Z,17.47
2023-07-21T08:36:36.778Z,17.51
2023-07-21T08:39:11.353Z,17.39
2023-07-21T08:41:46.484Z,17.32
2023-07-21T08:44:15.170Z,17.31
2023-07-21T08:46:42.151Z,17.45
2023-07-21T08:49:09.347Z,17.56
2023-07-21T08:51:38.916Z,17.52
2023-07-21T08:54:05.657Z,17.45
2023-07-21T08:56:32.449Z,17.36
2023-07-21T08:58:59.140Z,17.39
2023-07-21T09:01:25.953Z,17.13
2023-07-21T09:03:52.718Z,17.09
2023-07-21T09:06:19.553Z,17.17
2023-07-21T09:08:50.462Z,17.20
2023-07-21T09:11:18.427Z,17.20
2023-07-21T09:13:55.554Z,16.91
2023-07-21T09:16:22.265Z,17.06
2023-07-21T09:18:49.832Z,16.93
2023-07-21T09:21:21.581Z,17.05
2023-07-21T09:23:49.130Z,17.18
2023-07-21T09:26:24.163Z,17.32
2023-07-21T09:28:51.668Z,17.27
2023-07-21T09:31:18.399Z,17.31
2023-07-21T09:33:46.815Z,17.27
2023-07-21T09:36:17.718Z,17.37
2023-07-21T09:38:45.994Z,17.37
2023-07-21T09:41:23.534Z,17.48
2023-07-21T09:43:51.672Z,17.53
2023-07-21T09:46:19.149Z,17.76
2023-07-21T09:48:46.446Z,17.77
2023-07-21T09:51:13.681Z,17.69
2023-07-21T09:53:46.690Z,17.66
2023-07-21T09:56:15.037Z,17.74
2023-07-21T09:58:52.386Z,17.65
2023-07-21T10:01:20.115Z,17.70
2023-07-21T10:03:48.014Z,17.96
2023-07-21T10:06:16.535Z,18.19
2023-07-21T10:08:43.897Z,18.40
2023-07-21T10:11:11.106Z,18.58
2023-07-21T10:13:46.289Z,18.58
2023-07-21T10:16:13.814Z,18.64
2023-07-21T10:19:07.894Z,18.59
2023-07-21T10:21:56.081Z,18.60
2023-07-21T10:24:25.281Z,18.62
2023-07-21T10:27:06.465Z,18.79
2023-07-21T10:29:33.589Z,18.93
2023-07-21T10:32:04.644Z,19.20
2023-07-21T10:34:41.088Z,19.54
2023-07-21T10:37:08.452Z,19.80
2023-07-21T10:39:43.533Z,20.24
2023-07-21T10:42:12.718Z,20.64
2023-07-21T10:44:46.025Z,21.38
2023-07-21T10:47:17.243Z,21.92
2023-07-21T10:49:44.943Z,22.49
2023-07-21T10:52:12.414Z,22.86
2023-07-21T10:54:40.014Z,22.60
2023-07-21T10:57:07.453Z,22.51
2023-07-21T10:59:35.990Z,22.25
2023-07-21T11:02:05.453Z,22.43
2023-07-21T11:04:32.547Z,22.77
2023-07-21T11:07:01.058Z,22.90
2023-07-21T11:09:28.812Z,23.65
2023-07-21T11:11:58.946Z,23.72
2023-07-21T11:14:27.955Z,24.20
2023-07-21T11:16:56.423Z,24.57
2023-07-21T11:19:25.556Z,24.80
2023-07-21T11:21:54.334Z,24.70
2023-07-21T11:24:24.731Z,24.63
2023-07-21T11:26:51.598Z,24.77
2023-07-21T11:29:18.542Z,25.04
2023-07-21T11:31:45.390Z,24.77
2023-07-21T11:34:22.857Z,24.72
2023-07-21T11:36:53.886Z,24.52
2023-07-21T11:39:23.992Z,25.15
2023-07-21T11:41:51.902Z,25.78
2023-07-21T11:44:20.631Z,26.04
2023-07-21T11:47:13.563Z,25.95
2023-07-21T11:49:45.629Z,26.14
2023-07-21T11:52:23.897Z,26.09
2023-07-21T11:54:50.451Z,25.88
2023-07-21T11:57:17.130Z,25.88
2023-07-21T11:59:43.796Z,26.58
2023-07-21T12:02:10.897Z,26.66
2023-07-21T12:04:41.253Z,26.49
2023-07-21T12:07:11.250Z,26.09
2023-07-21T12:09:39.608Z,26.62
2023-07-21T12:12:08.896Z,25.83
2023-07-21T12:14:35.886Z,25.87
2023-07-21T12:17:02.642Z,24.53
2023-07-21T12:19:29.391Z,24.20
2023-07-21T12:21:57.059Z,24.06
2023-07-21T12:24:23.884Z,24.08
2023-07-21T12:26:50.786Z,23.79
2023-07-21T12:29:29.266Z,24.30
2023-07-21T12:32:01.242Z,24.23
2023-07-21T12:34:28.188Z,24.64
2023-07-21T12:36:55.276Z,24.50
2023-07-21T12:39:21.976Z,24.81
2023-07-21T12:41:48.817Z,25.31
2023-07-21T12:44:15.333Z,25.30
2023-07-21T12:46:42.777Z,25.34
2023-07-21T12:49:10.165Z,25.37
2023-07-21T12:51:38.009Z,25.19
2023-07-21T12:54:04.746Z,24.99
2023-07-21T12:56:31.496Z,24.66
2023-07-21T12:58:58.319Z,24.38
2023-07-21T13:01:25.078Z,24.45
2023-07-21T13:03:52.160Z,24.57
2023-07-21T13:06:19.031Z,24.94
2023-07-21T13:08:46.180Z,25.25
2023-07-21T13:11:12.872Z,25.29
2023-07-21T13:13:39.870Z,25.48
2023-07-21T13:16:06.749Z,25.22
2023-07-21T13:18:33.712Z,24.91
2023-07-21T13:21:00.367Z,24.82
2023-07-21T13:23:27.263Z,24.39
2023-07-21T13:25:53.916Z,24.42
2023-07-21T13:28:20.898Z,24.33
2023-07-21T13:30:47.936Z,24.40
2023-07-21T13:33:14.790Z,24.41
2023-07-21T13:35:41.520Z,24.18
2023-07-21T13:38:08.193Z,24.02
2023-07-21T13:40:34.944Z,23.83
2023-07-21T13:43:01.726Z,23.86
2023-07-21T13:45:28.579Z,23.88
2023-07-21T13:47:55.419Z,24.09
2023-07-21T13:50:22.235Z,24.11
2023-07-21T13:52:48.976Z,23.89
2023-07-21T13:55:15.606Z,23.65
2023-07-21T13:57:42.601Z,23.50
2023-07-21T14:00:19.236Z,23.27
2023-07-21T14:02:47.461Z,23.06
2023-07-21T14:05:15.495Z,22.71
2023-07-21T14:07:42.598Z,22.53
2023-07-21T14:10:10.239Z,22.66
2023-07-21T14:12:36.851Z,22.69
2023-07-21T14:15:04.369Z,22.70
2023-07-21T14:17:31.114Z,22.49
2023-07-21T14:19:57.936Z,22.29
2023-07-21T14:22:25.078Z,22.19
2023-07-21T14:24:52.136Z,22.05
2023-07-21T14:27:18.844Z,21.91
2023-07-21T14:29:45.600Z,21.88
2023-07-21T14:32:12.483Z,21.82
2023-07-21T14:34:39.218Z,21.67
2023-07-21T14:37:06.027Z,21.51
2023-07-21T14:39:32.847Z,21.46
2023-07-21T14:41:59.628Z,21.46
2023-07-21T14:44:26.517Z,21.24
2023-07-21T14:46:53.389Z,21.16
2023-07-21T14:49:22.314Z,21.06
2023-07-21T14:51:49.104Z,20.86
2023-07-21T14:54:15.924Z,20.64
2023-07-21T14:56:42.938Z,20.26
2023-07-21T14:59:09.622Z,19.86
2023-07-21T15:01:36.267Z,19.74
2023-07-21T15:04:02.897Z,19.03
2023-07-21T15:06:29.637Z,18.49
2023-07-21T15:08:56.494Z,18.41
2023-07-21T15:11:23.162Z,18.26
2023-07-21T15:13:50.080Z,18.00
2023-07-21T15:16:16.934Z,18.12
2023-07-21T15:18:43.846Z,18.43
2023-07-21T15:21:10.823Z,18.70
2023-07-21T15:23:37.580Z,18.83
2023-07-21T15:26:04.519Z,18.83
2023-07-21T15:28:31.428Z,18.89
2023-07-21T15:31:08.606Z,18.88
2023-07-21T15:33:36.030Z,18.88
2023-07-21T15:36:03.882Z,18.90
2023-07-21T15:38:30.570Z,18.86
2023-07-21T15:41:00.876Z,18.86
2023-07-21T15:43:27.515Z,18.85
2023-07-21T15:45:54.192Z,18.49
2023-07-21T15:48:20.998Z,18.59
2023-07-21T15:50:48.216Z,18.57
2023-07-21T15:53:15.151Z,18.47
2023-07-21T15:55:41.950Z,18.37
2023-07-21T15:58:08.982Z,18.44
2023-07-21T16:00:35.831Z,18.48
2023-07-21T16:03:02.569Z,18.52
2023-07-21T16:05:29.305Z,18.39
2023-07-21T16:07:56.182Z,18.17
2023-07-21T16:10:23.024Z,18.03
2023-07-21T16:12:50.913Z,18.04
2023-07-21T16:15:17.638Z,18.04
2023-07-21T16:17:47.238Z,18.06
2023-07-21T16:20:14.644Z,18.15
2023-07-21T16:22:42.121Z,18.14
2023-07-21T16:25:09.802Z,18.31
2023-07-21T16:27:37.333Z,18.26
2023-07-21T16:30:04.261Z,18.33
2023-07-21T16:32:31.095Z,18.32
2023-07-21T16:34:57.943Z,18.33
2023-07-21T16:37:24.653Z,18.46
2023-07-21T16:39:54.562Z,18.51
2023-07-21T16:42:21.291Z,18.64
2023-07-21T16:44:48.011Z,18.67
2023-07-21T16:47:15.137Z,18.80
2023-07-21T16:49:41.996Z,18.94
2023-07-21T16:52:08.911Z,18.92
2023-07-21T16:54:35.696Z,18.87
2023-07-21T16:57:02.554Z,18.84
2023-07-21T16:59:32.097Z,18.73
2023-07-21T17:02:01.448Z,18.55
2023-07-21T17:04:33.170Z,18.46
2023-07-21T17:07:00.612Z,18.31
2023-07-21T17:09:27.430Z,18.31
2023-07-21T17:11:54.179Z,18.09
2023-07-21T17:14:20.857Z,18.14
2023-07-21T17:16:47.954Z,18.29
2023-07-21T17:19:14.991Z,18.14
2023-07-21T17:21:44.114Z,18.10
2023-07-21T17:24:11.439Z,18.10
2023-07-21T17:26:38.173Z,18.05
2023-07-21T17:29:04.983Z,18.10
2023-07-21T17:31:31.698Z,18.13
2023-07-21T17:33:58.420Z,18.11
2023-07-21T17:36:25.226Z,18.07
2023-07-21T17:38:51.860Z,18.05
2023-07-21T17:41:18.628Z,18.06
2023-07-21T17:43:45.415Z,18.20
2023-07-21T17:46:12.329Z,18.09
2023-07-21T17:48:39.031Z,18.13
2023-07-21T17:51:05.578Z,18.12
2023-07-21T17:53:32.272Z,18.05
2023-07-21T17:55:59.116Z,18.00
2023-07-21T17:58:25.804Z,17.95
2023-07-21T18:00:52.840Z,17.95
2023-07-21T18:03:19.994Z,17.97
2023-07-21T18:05:47.884Z,17.94
2023-07-21T18:08:14.723Z,17.93
2023-07-21T18:10:41.524Z,17.96
2023-07-21T18:13:08.216Z,17.99
2023-07-21T18:15:37.142Z,18.01
2023-07-21T18:18:04.884Z,17.97
2023-07-21T18:20:35.176Z,17.86
2023-07-21T18:23:03.735Z,17.78
2023-07-21T18:25:30.655Z,17.87
2023-07-21T18:27:57.953Z,17.70
2023-07-21T18:30:24.834Z,17.72
2023-07-21T18:32:51.824Z,17.65
2023-07-21T18:35:18.677Z,17.73
2023-07-21T18:37:45.402Z,17.73
2023-07-21T18:40:18.180Z,17.71
2023-07-21T18:42:52.503Z,17.64
2023-07-21T18:45:22.763Z,17.63
2023-07-21T18:47:50.265Z,17.62
2023-07-21T18:50:20.463Z,17.65
2023-07-21T18:52:51.663Z,17.69
2023-07-21T18:55:22.010Z,17.68
2023-07-21T18:57:49.189Z,17.62
2023-07-21T19:00:17.259Z,17.53
2023-07-21T19:02:44.113Z,17.45
2023-07-21T19:05:11.022Z,17.37
2023-07-21T19:07:37.815Z,17.22
2023-07-21T19:10:08.789Z,17.11
2023-07-21T19:12:36.044Z,17.14
2023-07-21T19:15:02.978Z,17.08
2023-07-21T19:17:30.079Z,17.07
2023-07-21T19:19:56.881Z,16.99
2023-07-21T19:22:24.172Z,16.96
2023-07-21T19:24:50.897Z,16.93
2023-07-21T19:27:17.593Z,16.89
2023-07-21T19:29:44.326Z,16.74
2023-07-21T19:32:11.162Z,16.66
2023-07-21T19:34:38.960Z,16.67
2023-07-21T19:37:06.097Z,16.73
2023-07-21T19:39:33.185Z,16.65
2023-07-21T19:42:00.105Z,16.66
2023-07-21T19:44:27.154Z,16.74
2023-07-21T19:46:54.165Z,16.68
2023-07-21T19:49:21.161Z,16.59
2023-07-21T19:51:52.384Z,16.63
2023-07-21T19:54:20.275Z,16.67
2023-07-21T19:56:48.375Z,16.65
2023-07-21T19:59:15.931Z,16.66
2023-07-21T20:01:42.941Z,16.70
2023-07-21T20:04:10.389Z,16.70
2023-07-21T20:06:37.288Z,16.68
2023-07-21T20:09:05.557Z,16.64
2023-07-21T20:11:33.480Z,16.60
2023-07-21T20:14:00.249Z,16.59
2023-07-21T20:16:27.260Z,16.59
2023-07-21T20:18:54.176Z,16.61
2023-07-21T20:21:22.808Z,16.62
2023-07-21T20:23:49.739Z,16.54
2023-07-21T20:26:16.498Z,16.71
2023-07-21T20:28:43.128Z,16.54
2023-07-21T20:31:13.106Z,16.49
2023-07-21T20:33:39.834Z,16.40
2023-07-21T20:36:06.811Z,16.29
2023-07-21T20:38:34.842Z,16.27
2023-07-21T20:41:09.277Z,16.25
2023-07-21T20:43:37.113Z,16.23
2023-07-21T20:46:04.020Z,16.16
2023-07-21T20:48:30.750Z,16.18
2023-07-21T20:50:58.355Z,16.11
2023-07-21T20:53:25.874Z,16.15
2023-07-21T20:55:56.492Z,16.03
2023-07-21T20:58:24.773Z,15.94
2023-07-21T21:00:58.927Z,15.92
2023-07-21T21:03:25.668Z,15.92
2023-07-21T21:05:59.978Z,15.76
2023-07-21T21:08:27.421Z,15.78
2023-07-21T21:10:54.408Z,15.85
2023-07-21T21:13:22.335Z,15.76
2023-07-21T21:15:49.394Z,15.75
2023-07-21T21:18:16.652Z,15.71
2023-07-21T21:20:45.968Z,15.81
2023-07-21T21:23:13.597Z,15.79
2023-07-21T21:25:40.197Z,15.81
2023-07-21T21:28:08.416Z,15.85
2023-07-21T21:30:35.160Z,15.86
2023-07-21T21:33:01.840Z,15.76
2023-07-21T21:35:28.533Z,15.77
2023-07-21T21:37:55.233Z,15.77
2023-07-21T21:40:21.939Z,15.76
2023-07-21T21:42:48.585Z,15.74
2023-07-21T21:45:15.208Z,15.73
2023-07-21T21:47:41.808Z,15.72
2023-07-21T21:50:08.879Z,15.74
2023-07-21T21:52:35.660Z,15.74
2023-07-21T21:55:02.278Z,15.69
2023-07-21T21:57:29.299Z,15.63
2023-07-21T21:59:55.954Z,15.60
2023-07-21T22:02:22.762Z,15.62
2023-07-21T22:04:50.278Z,15.53
2023-07-21T22:07:16.892Z,15.45
2023-07-21T22:09:43.698Z,15.19
2023-07-21T22:12:12.642Z,15.12
2023-07-21T22:14:54.475Z,15.02
2023-07-21T22:17:23.652Z,14.89
2023-07-21T22:19:59.918Z,14.81
2023-07-21T22:22:37.282Z,14.77
2023-07-21T22:25:04.359Z,14.77
2023-07-21T22:27:31.142Z,14.79
2023-07-21T22:29:57.902Z,14.75
2023-07-21T22:32:24.993Z,14.66
2023-07-21T22:34:51.872Z,14.64
2023-07-21T22:37:18.679Z,14.59
2023-07-21T22:39:45.249Z,14.58
2023-07-21T22:42:11.907Z,14.52
2023-07-21T22:44:38.599Z,14.45
2023-07-21T22:47:05.458Z,14.34
2023-07-21T22:49:32.135Z,14.28
2023-07-21T22:51:58.956Z,14.30
2023-07-21T22:54:25.768Z,14.30
2023-07-21T22:56:52.426Z,14.30
2023-07-21T22:59:19.214Z,14.29
2023-07-21T23:01:45.957Z,14.27
2023-07-21T23:04:12.739Z,14.21
2023-07-21T23:06:40.942Z,14.21
2023-07-21T23:09:08.911Z,14.29
2023-07-21T23:11:35.784Z,14.29
2023-07-21T23:14:02.413Z,14.32
2023-07-21T23:16:29.613Z,14.31
2023-07-21T23:18:56.733Z,14.37
2023-07-21T23:21:23.570Z,14.36
2023-07-21T23:23:50.266Z,14.41
2023-07-21T23:26:16.923Z,14.52
2023-07-21T23:28:43.674Z,14.67
2023-07-21T23:31:10.450Z,14.74
2023-07-21T23:33:37.211Z,14.75
2023-07-21T23:36:04.763Z,14.73
2023-07-21T23:38:32.530Z,14.72
2023-07-21T23:40:59.374Z,14.68
2023-07-21T23:43:26.684Z,14.65
2023-07-21T23:45:59.152Z,14.72
2023-07-21T23:48:26.695Z,14.66
2023-07-21T23:50:53.344Z,14.72
2023-07-21T23:53:20.111Z,14.61
2023-07-21T23:55:46.722Z,14.69
2023-07-21T23:58:13.379Z,14.71
